Time;durP1;ratioP1;P1;durP2;ratioP2;P2;SDS_P1;SDS_P2;PMS_P1;PMS_P2;Temp;Humidity;BMP_temperature;BMP_pressure;BME280_temperature;BME280_humidity;BME280_pressure;Samples;Min_cycle;Max_cycle;Signal;HPM_P1;HPM_P2
2022/07/08 00:00:14;;;;;;;6.60;2.80;;;;;;;;;;4993713;28;20340;-80
2022/07/08 00:02:39;;;;;;;2.53;2.20;;;;;;;;;;4988703;28;20278;-79
2022/07/08 00:05:05;;;;;;;4.53;1.97;;;;;;;;;;4990884;28;20179;-79
2022/07/08 00:07:30;;;;;;;5.07;2.40;;;;;;;;;;4997047;28;20188;-79
2022/07/08 00:09:55;;;;;;;4.13;2.23;;;;;;;;;;4989420;28;20181;-79
2022/07/08 00:12:20;;;;;;;8.60;2.40;;;;;;;;;;4990548;28;20193;-79
2022/07/08 00:14:45;;;;;;;4.50;2.33;;;;;;;;;;4997843;28;20197;-79
2022/07/08 00:17:11;;;;;;;8.37;2.50;;;;;;;;;;4991430;28;20189;-80
2022/07/08 00:19:36;;;;;;;5.10;2.23;;;;;;;;;;4988858;28;20236;-79
2022/07/08 00:22:01;;;;;;;4.37;2.00;;;;;;;;;;4996169;28;20185;-79
2022/07/08 00:24:27;;;;;;;6.43;2.40;;;;;;;;;;4992502;28;20248;-79
2022/07/08 00:26:52;;;;;;;5.63;2.50;;;;;;;;;;4997527;28;20187;-79
2022/07/08 00:29:17;;;;;;;5.50;2.40;;;;;;;;;;4999306;28;20209;-79
2022/07/08 00:31:44;;;;;;;6.10;2.13;;;;;;;;;;4992251;28;20317;-79
2022/07/08 00:34:09;;;;;;;7.23;2.53;;;;;;;;;;4987790;28;20186;-79
2022/07/08 00:36:35;;;;;;;4.40;2.50;;;;;;;;;;4994509;28;20239;-79
2022/07/08 00:39:01;;;;;;;4.43;2.30;;;;;;;;;;4988059;28;20263;-79
2022/07/08 00:41:26;;;;;;;1.90;1.63;;;;;;;;;;4995961;28;20186;-79
2022/07/08 00:43:52;;;;;;;4.47;2.23;;;;;;;;;;4990441;28;20191;-79
2022/07/08 00:46:37;;;;;;;6.37;2.33;;;;;;;;;;5000529;28;20206;-79
2022/07/08 00:49:02;;;;;;;6.90;2.83;;;;;;;;;;4989131;28;20634;-79
2022/07/08 00:51:27;;;;;;;5.10;2.67;;;;;;;;;;4986452;28;20246;-80
2022/07/08 00:53:53;;;;;;;5.03;2.77;;;;;;;;;;4993306;28;20173;-79
2022/07/08 00:56:19;;;;;;;8.07;3.63;;;;;;;;;;4990245;28;20196;-79
2022/07/08 00:58:45;;;;;;;6.33;3.53;;;;;;;;;;4995384;28;20292;-79
2022/07/08 01:01:11;;;;;;;11.80;3.67;;;;;;;;;;4996115;28;20176;-79
2022/07/08 01:03:36;;;;;;;5.00;3.30;;;;;;;;;;4986438;28;20173;-79
2022/07/08 01:06:01;;;;;;;3.97;3.13;;;;;;;;;;4989564;28;20177;-79
2022/07/08 01:08:27;;;;;;;7.27;3.43;;;;;;;;;;4989572;28;20183;-79
2022/07/08 01:10:52;;;;;;;5.60;4.03;;;;;;;;;;5000503;28;20187;-79
2022/07/08 01:13:18;;;;;;;8.00;4.00;;;;;;;;;;4991648;28;20183;-79
2022/07/08 01:15:44;;;;;;;5.67;3.70;;;;;;;;;;4986618;28;20198;-78
2022/07/08 01:18:09;;;;;;;6.37;4.07;;;;;;;;;;4991238;28;20231;-79
2022/07/08 01:20:34;;;;;;;5.20;3.33;;;;;;;;;;4999011;28;20189;-79
2022/07/08 01:23:00;;;;;;;4.60;3.67;;;;;;;;;;4995660;28;20274;-79
2022/07/08 01:25:25;;;;;;;8.03;3.90;;;;;;;;;;4991270;28;20214;-79
2022/07/08 01:27:51;;;;;;;4.73;3.20;;;;;;;;;;4988816;28;20186;-79
2022/07/08 01:30:16;;;;;;;5.23;3.40;;;;;;;;;;4990069;28;20243;-79
2022/07/08 01:32:42;;;;;;;3.83;3.10;;;;;;;;;;4985241;28;20176;-79
2022/07/08 01:35:07;;;;;;;6.23;3.57;;;;;;;;;;4992738;28;20250;-78
2022/07/08 01:37:33;;;;;;;5.07;2.87;;;;;;;;;;4992125;28;20180;-79
2022/07/08 01:39:58;;;;;;;7.17;3.30;;;;;;;;;;4989936;28;20231;-79
2022/07/08 01:42:23;;;;;;;5.87;3.70;;;;;;;;;;4988000;28;20199;-79
2022/07/08 01:44:48;;;;;;;6.70;3.50;;;;;;;;;;5003545;28;20210;-79
2022/07/08 01:47:14;;;;;;;5.10;3.10;;;;;;;;;;4987990;28;20205;-79
2022/07/08 01:49:39;;;;;;;5.90;3.47;;;;;;;;;;4985226;28;20188;-79
2022/07/08 01:52:05;;;;;;;6.27;4.33;;;;;;;;;;4992818;28;20214;-79
2022/07/08 01:54:31;;;;;;;7.17;3.63;;;;;;;;;;4988391;28;20176;-79
2022/07/08 01:57:13;;;;;;;5.93;3.60;;;;;;;;;;4990807;28;20212;-79
2022/07/08 01:59:39;;;;;;;8.50;4.10;;;;;;;;;;4992060;28;20207;-79
2022/07/08 02:02:04;;;;;;;4.23;3.43;;;;;;;;;;4994098;28;20234;-79
2022/07/08 02:04:29;;;;;;;4.63;3.50;;;;;;;;;;4994612;28;20183;-79
2022/07/08 02:06:54;;;;;;;5.73;3.80;;;;;;;;;;5000969;28;20184;-79
2022/07/08 02:09:20;;;;;;;6.20;3.50;;;;;;;;;;4992846;28;20183;-79
2022/07/08 02:14:29;;;;;;;4.53;3.37;;;;;;;;;;4997014;28;20195;-79
2022/07/08 02:16:54;;;;;;;8.87;3.70;;;;;;;;;;4996639;28;20190;-79
2022/07/08 02:19:19;;;;;;;5.00;3.27;;;;;;;;;;4993494;28;20231;-79
2022/07/08 02:21:45;;;;;;;8.10;3.63;;;;;;;;;;4989086;28;20238;-79
2022/07/08 02:24:10;;;;;;;7.03;3.23;;;;;;;;;;4992172;28;20180;-79
2022/07/08 02:26:35;;;;;;;4.63;3.20;;;;;;;;;;4993301;28;20258;-79
2022/07/08 02:29:00;;;;;;;4.43;2.97;;;;;;;;;;4998038;28;20338;-79
2022/07/08 02:31:25;;;;;;;4.27;3.03;;;;;;;;;;4994471;28;20172;-79
2022/07/08 02:33:51;;;;;;;6.70;3.33;;;;;;;;;;4988692;28;20192;-79
2022/07/08 02:36:16;;;;;;;5.53;3.27;;;;;;;;;;4992238;28;20183;-79
2022/07/08 02:38:41;;;;;;;7.03;2.87;;;;;;;;;;4992256;28;20211;-79
2022/07/08 02:41:06;;;;;;;4.83;3.03;;;;;;;;;;4992607;28;20191;-79
2022/07/08 02:43:31;;;;;;;4.63;2.93;;;;;;;;;;4994989;28;20171;-79
2022/07/08 02:45:57;;;;;;;5.33;3.50;;;;;;;;;;4992402;28;20198;-79
2022/07/08 02:48:22;;;;;;;6.80;3.00;;;;;;;;;;4991731;28;20187;-79
2022/07/08 02:50:47;;;;;;;5.57;2.57;;;;;;;;;;4992426;28;20259;-79
2022/07/08 02:53:13;;;;;;;3.23;2.57;;;;;;;;;;4987087;28;20585;-79
2022/07/08 02:55:38;;;;;;;5.37;2.83;;;;;;;;;;4993060;28;20227;-79
2022/07/08 02:58:03;;;;;;;3.10;2.67;;;;;;;;;;4992919;28;20323;-79
2022/07/08 03:00:28;;;;;;;3.93;2.47;;;;;;;;;;4991591;28;20208;-79
2022/07/08 03:02:54;;;;;;;3.80;3.10;;;;;;;;;;4993403;28;20207;-79
2022/07/08 03:05:19;;;;;;;3.63;2.97;;;;;;;;;;4992855;28;20423;-79
2022/07/08 03:07:44;;;;;;;2.93;2.60;;;;;;;;;;4991367;28;20199;-79
2022/07/08 03:10:09;;;;;;;6.70;3.17;;;;;;;;;;5006757;28;20340;-79
2022/07/08 03:12:34;;;;;;;6.50;3.50;;;;;;;;;;5005005;28;20357;-79
2022/07/08 03:15:00;;;;;;;5.93;2.70;;;;;;;;;;4992065;28;20187;-79
2022/07/08 03:17:25;;;;;;;5.83;3.20;;;;;;;;;;4993216;28;20269;-79
2022/07/08 03:19:50;;;;;;;4.33;2.80;;;;;;;;;;4991324;28;20198;-79
2022/07/08 03:22:15;;;;;;;6.90;3.07;;;;;;;;;;4985480;28;20256;-79
2022/07/08 03:24:40;;;;;;;3.20;2.90;;;;;;;;;;4985227;28;20182;-80
2022/07/08 03:27:06;;;;;;;7.10;3.20;;;;;;;;;;4989820;28;20189;-79
2022/07/08 03:29:31;;;;;;;5.60;3.10;;;;;;;;;;5002980;28;20229;-79
2022/07/08 03:31:57;;;;;;;5.73;2.80;;;;;;;;;;4993072;28;20195;-79
2022/07/08 03:34:22;;;;;;;6.00;2.70;;;;;;;;;;4987472;28;20267;-79
2022/07/08 03:36:48;;;;;;;4.63;2.50;;;;;;;;;;4990902;28;20187;-79
2022/07/08 03:39:14;;;;;;;5.77;2.90;;;;;;;;;;4998308;28;20222;-79
2022/07/08 03:41:39;;;;;;;3.60;2.77;;;;;;;;;;4993916;28;20171;-79
2022/07/08 03:44:04;;;;;;;5.13;2.60;;;;;;;;;;4991347;28;20230;-79
2022/07/08 03:46:30;;;;;;;7.30;2.33;;;;;;;;;;4993209;28;20176;-79
2022/07/08 03:48:55;;;;;;;4.33;2.97;;;;;;;;;;4998680;28;20200;-79
2022/07/08 03:51:22;;;;;;;5.53;2.70;;;;;;;;;;4997537;28;20190;-79
2022/07/08 03:53:48;;;;;;;3.87;2.50;;;;;;;;;;4991980;28;20187;-79
2022/07/08 03:56:13;;;;;;;2.70;2.30;;;;;;;;;;4986264;28;20271;-79
2022/07/08 03:58:38;;;;;;;7.50;3.23;;;;;;;;;;4991081;28;20234;-79
2022/07/08 04:01:04;;;;;;;5.47;2.97;;;;;;;;;;4994297;28;20180;-79
2022/07/08 04:03:29;;;;;;;5.97;2.97;;;;;;;;;;4990852;28;20175;-79
2022/07/08 04:05:55;;;;;;;5.33;2.80;;;;;;;;;;4992431;28;20171;-79
2022/07/08 04:08:20;;;;;;;4.87;3.30;;;;;;;;;;4999501;28;20186;-79
2022/07/08 04:10:45;;;;;;;6.20;3.23;;;;;;;;;;4996674;28;20197;-79
2022/07/08 04:13:11;;;;;;;5.97;2.97;;;;;;;;;;4989481;28;20194;-79
2022/07/08 04:15:36;;;;;;;3.20;2.60;;;;;;;;;;4989779;28;20187;-79
2022/07/08 04:18:01;;;;;;;6.57;2.80;;;;;;;;;;5005544;28;20231;-79
2022/07/08 04:20:26;;;;;;;5.60;2.83;;;;;;;;;;4988724;28;20225;-79
2022/07/08 04:22:51;;;;;;;8.67;3.37;;;;;;;;;;4990972;28;20183;-79
2022/07/08 04:25:17;;;;;;;3.20;2.83;;;;;;;;;;4990576;28;20194;-79
2022/07/08 04:27:42;;;;;;;7.43;4.13;;;;;;;;;;4989270;28;20180;-79
2022/07/08 04:30:07;;;;;;;5.37;3.30;;;;;;;;;;4990555;28;20188;-79
2022/07/08 04:32:33;;;;;;;7.83;3.83;;;;;;;;;;4991450;28;20195;-79
2022/07/08 04:34:59;;;;;;;3.40;2.67;;;;;;;;;;4990881;28;20198;-79
2022/07/08 04:37:25;;;;;;;4.30;3.60;;;;;;;;;;4990489;28;20187;-79
2022/07/08 04:39:51;;;;;;;4.73;2.80;;;;;;;;;;5006043;28;20211;-79
2022/07/08 04:42:16;;;;;;;6.13;3.27;;;;;;;;;;4990757;28;20176;-79
2022/07/08 04:44:41;;;;;;;8.00;2.83;;;;;;;;;;4987780;28;20206;-79
2022/07/08 04:47:06;;;;;;;11.03;3.20;;;;;;;;;;4991188;28;20187;-79
2022/07/08 04:49:31;;;;;;;5.87;2.80;;;;;;;;;;4990409;28;20194;-79
2022/07/08 04:51:57;;;;;;;6.40;2.90;;;;;;;;;;4988293;28;20194;-79
2022/07/08 04:54:22;;;;;;;7.10;3.10;;;;;;;;;;4994449;28;20179;-79
2022/07/08 04:56:47;;;;;;;5.67;3.43;;;;;;;;;;4990820;28;20295;-79
2022/07/08 04:59:12;;;;;;;4.70;2.60;;;;;;;;;;4989895;28;20209;-79
2022/07/08 05:01:37;;;;;;;7.03;2.90;;;;;;;;;;4991198;28;20183;-79
2022/07/08 05:04:03;;;;;;;7.23;3.00;;;;;;;;;;4999801;28;20178;-79
2022/07/08 05:06:28;;;;;;;4.13;2.77;;;;;;;;;;4988397;28;20189;-79
2022/07/08 05:08:53;;;;;;;8.17;2.90;;;;;;;;;;4990583;28;20175;-79
2022/07/08 05:11:18;;;;;;;3.97;3.20;;;;;;;;;;4989182;28;20196;-79
2022/07/08 05:13:44;;;;;;;7.00;3.40;;;;;;;;;;5000917;28;20240;-79
2022/07/08 05:16:09;;;;;;;5.30;3.83;;;;;;;;;;4990232;28;20183;-79
2022/07/08 05:18:34;;;;;;;9.07;3.73;;;;;;;;;;4992613;28;20234;-78
2022/07/08 05:21:00;;;;;;;4.07;2.77;;;;;;;;;;4989881;28;20191;-79
2022/07/08 05:23:25;;;;;;;5.23;2.73;;;;;;;;;;4988580;28;20209;-79
2022/07/08 05:25:50;;;;;;;4.30;2.77;;;;;;;;;;4992495;28;20180;-78
2022/07/08 05:28:15;;;;;;;2.67;2.27;;;;;;;;;;4990799;28;20183;-79
2022/07/08 05:30:40;;;;;;;2.83;2.50;;;;;;;;;;4985546;28;20380;-79
2022/07/08 05:33:06;;;;;;;3.83;2.10;;;;;;;;;;5010056;28;20186;-79
2022/07/08 05:35:31;;;;;;;7.70;2.57;;;;;;;;;;4998753;28;20183;-79
2022/07/08 05:37:56;;;;;;;7.20;2.23;;;;;;;;;;4995075;28;20190;-78
2022/07/08 05:40:21;;;;;;;3.73;2.00;;;;;;;;;;4996689;28;20200;-79
2022/07/08 05:42:46;;;;;;;5.50;3.00;;;;;;;;;;4996713;28;20315;-78
2022/07/08 05:45:13;;;;;;;2.40;2.00;;;;;;;;;;4994081;28;20175;-79
2022/07/08 05:47:38;;;;;;;4.03;2.07;;;;;;;;;;4994906;28;20178;-79
2022/07/08 05:50:04;;;;;;;3.13;2.00;;;;;;;;;;4996050;28;20180;-78
2022/07/08 05:52:29;;;;;;;4.57;2.50;;;;;;;;;;5001445;28;20245;-79
2022/07/08 05:54:54;;;;;;;5.37;2.63;;;;;;;;;;5000407;28;20179;-79
2022/07/08 05:57:20;;;;;;;3.43;2.27;;;;;;;;;;4995458;28;20290;-78
2022/07/08 05:59:45;;;;;;;2.30;1.73;;;;;;;;;;4994302;28;20335;-79
2022/07/08 06:02:11;;;;;;;5.33;2.00;;;;;;;;;;4993576;28;20203;-79
2022/07/08 06:04:36;;;;;;;3.50;2.27;;;;;;;;;;5001901;28;20214;-79
2022/07/08 06:07:02;;;;;;;5.07;2.30;;;;;;;;;;4999052;28;20188;-79
2022/07/08 06:09:27;;;;;;;2.77;2.07;;;;;;;;;;4998095;28;20185;-79
2022/07/08 06:11:52;;;;;;;3.80;2.30;;;;;;;;;;5002132;28;20200;-79
2022/07/08 06:14:18;;;;;;;3.97;2.00;;;;;;;;;;4978871;28;20189;-79
2022/07/08 06:16:43;;;;;;;5.90;1.90;;;;;;;;;;4999357;28;20284;-79
2022/07/08 06:19:08;;;;;;;7.13;2.73;;;;;;;;;;4996996;28;20237;-79
2022/07/08 06:21:34;;;;;;;7.67;2.00;;;;;;;;;;4997406;28;20180;-79
2022/07/08 06:24:00;;;;;;;4.60;2.17;;;;;;;;;;4992478;28;20264;-79
2022/07/08 06:26:26;;;;;;;2.73;2.00;;;;;;;;;;4995065;28;20191;-79
2022/07/08 06:28:51;;;;;;;6.33;2.20;;;;;;;;;;4996441;28;20188;-79
2022/07/08 06:31:16;;;;;;;4.73;3.20;;;;;;;;;;4992217;28;20205;-79
2022/07/08 06:33:41;;;;;;;5.67;2.47;;;;;;;;;;4999481;28;20183;-79
2022/07/08 06:36:07;;;;;;;4.87;2.40;;;;;;;;;;4995184;28;20216;-82
2022/07/08 06:38:32;;;;;;;6.33;2.13;;;;;;;;;;4995156;28;20288;-76
2022/07/08 06:40:58;;;;;;;8.13;2.80;;;;;;;;;;5007182;28;20182;-87
2022/07/08 06:43:24;;;;;;;4.23;2.20;;;;;;;;;;4992907;28;20173;-87
2022/07/08 06:45:49;;;;;;;8.70;2.83;;;;;;;;;;4993241;28;20184;-87
2022/07/08 06:48:14;;;;;;;5.17;2.20;;;;;;;;;;4995919;28;20185;-87
2022/07/08 06:50:40;;;;;;;3.27;2.20;;;;;;;;;;4993175;28;20182;-87
2022/07/08 06:53:05;;;;;;;3.13;2.83;;;;;;;;;;4993169;28;20197;-87
2022/07/08 06:55:30;;;;;;;4.70;2.03;;;;;;;;;;4999897;28;20180;-87
2022/07/08 06:57:55;;;;;;;2.67;1.60;;;;;;;;;;4993760;28;20196;-87
2022/07/08 07:00:23;;;;;;;6.27;2.30;;;;;;;;;;4994997;28;20201;-87
2022/07/08 07:02:48;;;;;;;5.30;2.10;;;;;;;;;;4995250;28;20183;-87
2022/07/08 07:05:13;;;;;;;5.13;2.40;;;;;;;;;;4992807;28;20184;-87
2022/07/08 07:07:39;;;;;;;4.53;2.13;;;;;;;;;;4991744;28;20186;-88
2022/07/08 07:10:05;;;;;;;5.73;2.47;;;;;;;;;;4992328;28;20181;-87
2022/07/08 07:12:30;;;;;;;4.33;2.37;;;;;;;;;;4996315;28;20245;-87
2022/07/08 07:14:55;;;;;;;5.07;2.03;;;;;;;;;;4994404;28;20190;-87
2022/07/08 07:17:21;;;;;;;4.87;2.10;;;;;;;;;;5007025;28;20244;-88
2022/07/08 07:19:47;;;;;;;4.23;1.97;;;;;;;;;;4997379;28;20213;-87
2022/07/08 07:22:12;;;;;;;5.60;2.23;;;;;;;;;;4990959;28;20298;-87
2022/07/08 07:24:38;;;;;;;3.30;2.40;;;;;;;;;;4993837;28;20184;-87
2022/07/08 07:27:04;;;;;;;4.63;3.03;;;;;;;;;;4992427;28;20222;-85
2022/07/08 07:29:29;;;;;;;3.33;2.27;;;;;;;;;;4998602;28;20301;-86
2022/07/08 07:31:54;;;;;;;5.63;3.60;;;;;;;;;;4999458;28;20209;-86
2022/07/08 07:34:19;;;;;;;4.87;2.13;;;;;;;;;;4997242;28;20191;-86
2022/07/08 07:36:45;;;;;;;7.70;2.30;;;;;;;;;;4993553;28;20214;-86
2022/07/08 07:39:10;;;;;;;4.00;2.83;;;;;;;;;;4989689;28;20200;-87
2022/07/08 07:41:36;;;;;;;6.60;2.37;;;;;;;;;;4995234;28;20232;-86
2022/07/08 07:44:02;;;;;;;3.83;2.50;;;;;;;;;;4992266;28;20230;-86
2022/07/08 07:46:27;;;;;;;6.27;2.80;;;;;;;;;;4991662;28;20205;-86
2022/07/08 07:48:52;;;;;;;4.70;2.27;;;;;;;;;;4991272;28;20182;-86
2022/07/08 07:51:18;;;;;;;6.17;2.13;;;;;;;;;;4996060;28;20273;-86
2022/07/08 07:53:43;;;;;;;2.83;2.03;;;;;;;;;;4992646;28;20206;-85
2022/07/08 07:56:08;;;;;;;3.23;2.50;;;;;;;;;;4989980;28;20269;-87
2022/07/08 07:58:33;;;;;;;4.20;2.50;;;;;;;;;;4994844;28;20188;-87
2022/07/08 08:00:59;;;;;;;4.00;2.10;;;;;;;;;;4997373;28;20183;-87
2022/07/08 08:03:24;;;;;;;5.67;4.33;;;;;;;;;;4988047;28;20176;-87
2022/07/08 08:05:49;;;;;;;5.10;2.30;;;;;;;;;;4992245;28;20229;-87
2022/07/08 08:08:15;;;;;;;5.07;2.50;;;;;;;;;;4992149;28;20237;-87
2022/07/08 08:10:40;;;;;;;6.13;2.37;;;;;;;;;;4994652;28;20182;-87
2022/07/08 08:13:05;;;;;;;5.07;2.03;;;;;;;;;;4985492;28;20246;-86
2022/07/08 08:15:31;;;;;;;4.43;2.23;;;;;;;;;;4990669;28;20184;-86
2022/07/08 08:17:56;;;;;;;4.50;2.67;;;;;;;;;;4993651;28;20234;-86
2022/07/08 08:20:23;;;;;;;3.43;2.10;;;;;;;;;;4994604;28;20261;-86
2022/07/08 08:22:50;;;;;;;5.47;2.47;;;;;;;;;;4997524;28;20171;-85
2022/07/08 08:25:16;;;;;;;4.37;2.43;;;;;;;;;;4997055;28;20179;-85
2022/07/08 08:27:41;;;;;;;3.37;2.90;;;;;;;;;;4993195;28;20262;-84
2022/07/08 08:30:07;;;;;;;4.63;2.87;;;;;;;;;;4994441;28;20195;-84
2022/07/08 08:32:32;;;;;;;4.90;2.40;;;;;;;;;;4991402;28;20191;-84
2022/07/08 08:34:58;;;;;;;4.17;2.03;;;;;;;;;;4991254;28;20191;-86
2022/07/08 08:37:26;;;;;;;2.97;2.00;;;;;;;;;;5001623;28;20176;-84
2022/07/08 08:39:52;;;;;;;3.77;2.07;;;;;;;;;;4996151;28;20197;-84
2022/07/08 08:42:18;;;;;;;2.77;2.20;;;;;;;;;;4991870;28;20179;-84
2022/07/08 08:44:43;;;;;;;4.13;2.63;;;;;;;;;;4992856;28;20215;-85
2022/07/08 08:47:09;;;;;;;4.70;2.27;;;;;;;;;;4989172;28;20181;-84
2022/07/08 08:49:35;;;;;;;4.50;2.17;;;;;;;;;;4990979;28;20180;-84
2022/07/08 08:52:02;;;;;;;5.10;2.50;;;;;;;;;;4991101;28;20184;-84
2022/07/08 08:54:28;;;;;;;5.10;2.33;;;;;;;;;;4993422;28;20188;-84
2022/07/08 08:56:53;;;;;;;4.23;2.20;;;;;;;;;;5004457;28;20204;-84
2022/07/08 08:59:18;;;;;;;4.83;2.20;;;;;;;;;;4990244;28;20223;-84
2022/07/08 09:01:44;;;;;;;4.30;2.37;;;;;;;;;;4990212;28;20182;-84
2022/07/08 09:04:12;;;;;;;3.27;2.20;;;;;;;;;;4993586;28;20183;-84
2022/07/08 09:06:38;;;;;;;5.87;2.23;;;;;;;;;;4997437;28;20177;-84
2022/07/08 09:09:03;;;;;;;2.23;2.03;;;;;;;;;;4989019;28;20240;-85
2022/07/08 09:11:30;;;;;;;3.87;2.10;;;;;;;;;;4991233;28;20193;-84
2022/07/08 09:14:15;;;;;;;4.27;2.03;;;;;;;;;;5000972;28;20264;-85
2022/07/08 09:16:41;;;;;;;8.07;2.17;;;;;;;;;;4992043;28;20181;-84
2022/07/08 09:19:13;;;;;;;3.80;1.87;;;;;;;;;;4990224;28;20239;-84
2022/07/08 09:21:38;;;;;;;5.67;2.83;;;;;;;;;;4986290;28;20251;-85
2022/07/08 09:24:17;;;;;;;2.93;1.87;;;;;;;;;;4990480;28;20188;-84
2022/07/08 09:26:42;;;;;;;3.53;2.10;;;;;;;;;;4990593;28;20183;-83
2022/07/08 09:29:08;;;;;;;2.80;2.10;;;;;;;;;;4998074;28;20195;-83
2022/07/08 09:31:36;;;;;;;2.80;1.83;;;;;;;;;;4991225;28;20201;-85
2022/07/08 09:34:08;;;;;;;4.50;2.37;;;;;;;;;;4990520;28;20217;-85
2022/07/08 09:36:43;;;;;;;4.33;2.17;;;;;;;;;;4984490;28;20193;-85
2022/07/08 09:39:15;;;;;;;3.47;1.90;;;;;;;;;;4988999;28;20282;-85
2022/07/08 09:41:49;;;;;;;4.33;1.87;;;;;;;;;;4989445;28;20415;-84
2022/07/08 09:44:15;;;;;;;3.33;1.90;;;;;;;;;;4989246;28;20179;-84
2022/07/08 09:46:41;;;;;;;2.27;1.80;;;;;;;;;;4996249;28;20183;-84
2022/07/08 09:49:07;;;;;;;4.17;1.90;;;;;;;;;;4996389;28;20192;-85
2022/07/08 09:51:32;;;;;;;3.57;2.17;;;;;;;;;;4987308;28;20271;-84
2022/07/08 09:54:10;;;;;;;3.13;1.80;;;;;;;;;;4990101;28;20183;-85
2022/07/08 09:56:36;;;;;;;6.07;2.03;;;;;;;;;;4988047;28;20202;-85
2022/07/08 09:59:01;;;;;;;3.93;2.23;;;;;;;;;;4999201;28;20393;-84
2022/07/08 10:01:27;;;;;;;5.63;2.20;;;;;;;;;;4989870;28;20179;-85
2022/07/08 10:03:53;;;;;;;6.93;2.37;;;;;;;;;;4990512;28;20197;-85
2022/07/08 10:06:19;;;;;;;3.10;1.83;;;;;;;;;;4990228;28;20222;-85
2022/07/08 10:08:44;;;;;;;5.03;2.07;;;;;;;;;;5002164;28;20210;-84
2022/07/08 10:11:10;;;;;;;4.67;2.17;;;;;;;;;;4985817;28;20179;-85
2022/07/08 10:13:35;;;;;;;4.77;2.20;;;;;;;;;;4985505;28;20174;-85
2022/07/08 10:16:03;;;;;;;4.67;1.90;;;;;;;;;;4988791;28;20179;-85
2022/07/08 10:18:28;;;;;;;3.83;2.07;;;;;;;;;;4989972;28;20234;-85
2022/07/08 10:20:55;;;;;;;2.93;2.33;;;;;;;;;;4997278;28;20208;-85
2022/07/08 10:23:39;;;;;;;2.97;2.60;;;;;;;;;;4993528;28;20213;-85
2022/07/08 10:26:06;;;;;;;4.93;2.23;;;;;;;;;;4993888;28;20218;-85
2022/07/08 10:28:35;;;;;;;4.70;1.87;;;;;;;;;;4999181;28;20203;-85
2022/07/08 10:31:01;;;;;;;4.40;1.73;;;;;;;;;;4997192;28;20204;-85
2022/07/08 10:33:27;;;;;;;2.87;2.37;;;;;;;;;;4998620;28;20178;-85
2022/07/08 10:36:01;;;;;;;3.83;2.50;;;;;;;;;;4993472;28;20176;-85
2022/07/08 10:38:34;;;;;;;4.23;2.17;;;;;;;;;;5000983;28;20178;-85
2022/07/08 10:41:00;;;;;;;4.37;2.07;;;;;;;;;;4997738;28;20206;-85
2022/07/08 10:43:26;;;;;;;5.03;1.83;;;;;;;;;;4994032;28;20224;-85
2022/07/08 10:46:02;;;;;;;3.40;2.03;;;;;;;;;;4989406;28;20193;-85
2022/07/08 10:48:39;;;;;;;2.83;2.07;;;;;;;;;;5001585;28;20182;-85
2022/07/08 10:51:05;;;;;;;2.17;1.97;;;;;;;;;;4993128;28;20227;-85
2022/07/08 10:53:46;;;;;;;2.50;1.97;;;;;;;;;;4992939;28;20174;-85
2022/07/08 10:56:12;;;;;;;2.13;1.60;;;;;;;;;;5006897;28;20202;-85
2022/07/08 10:59:00;;;;;;;3.27;1.70;;;;;;;;;;5001185;28;20189;-85
2022/07/08 11:01:27;;;;;;;4.97;2.33;;;;;;;;;;4984131;28;20196;-85
2022/07/08 11:03:52;;;;;;;4.33;2.30;;;;;;;;;;4987717;28;20181;-85
2022/07/08 11:06:34;;;;;;;4.53;1.97;;;;;;;;;;4993224;28;20235;-86
2022/07/08 11:09:00;;;;;;;3.57;2.30;;;;;;;;;;5001799;28;20188;-86
2022/07/08 11:11:25;;;;;;;3.60;2.20;;;;;;;;;;4992467;28;20268;-85
2022/07/08 11:13:51;;;;;;;4.80;2.10;;;;;;;;;;4992926;28;20250;-86
2022/07/08 11:16:16;;;;;;;5.10;2.20;;;;;;;;;;4992080;28;20179;-85
2022/07/08 11:18:45;;;;;;;2.53;2.10;;;;;;;;;;4991095;28;20240;-86
2022/07/08 11:21:10;;;;;;;3.50;2.03;;;;;;;;;;4991815;28;20221;-85
2022/07/08 11:23:36;;;;;;;3.50;2.10;;;;;;;;;;4991840;28;20199;-86
2022/07/08 11:26:01;;;;;;;6.07;1.90;;;;;;;;;;4990500;28;20179;-83
2022/07/08 11:28:27;;;;;;;1.97;1.60;;;;;;;;;;4988490;28;20181;-86
2022/07/08 11:30:57;;;;;;;5.93;2.20;;;;;;;;;;4993439;28;20220;-86
2022/07/08 11:33:42;;;;;;;3.20;1.90;;;;;;;;;;4990932;28;20280;-85
2022/07/08 11:36:17;;;;;;;4.00;2.60;;;;;;;;;;4987963;28;20238;-85
2022/07/08 11:38:43;;;;;;;2.40;1.70;;;;;;;;;;4991922;28;20190;-86
2022/07/08 11:41:08;;;;;;;2.30;1.70;;;;;;;;;;4999843;28;20259;-85
2022/07/08 11:43:34;;;;;;;3.90;2.17;;;;;;;;;;4991777;28;20251;-86
2022/07/08 11:45:59;;;;;;;4.77;1.90;;;;;;;;;;4991238;28;20217;-86
2022/07/08 11:48:37;;;;;;;3.70;1.67;;;;;;;;;;4993963;28;20182;-85
2022/07/08 11:51:02;;;;;;;2.87;1.87;;;;;;;;;;4998536;28;20172;-86
2022/07/08 11:53:30;;;;;;;4.67;1.97;;;;;;;;;;4991979;28;21558;-86
2022/07/08 11:55:55;;;;;;;3.40;2.30;;;;;;;;;;4998880;28;20223;-86
2022/07/08 11:58:21;;;;;;;3.67;1.90;;;;;;;;;;4992429;28;20179;-86
2022/07/08 12:00:46;;;;;;;5.17;2.23;;;;;;;;;;4991922;28;20213;-86
2022/07/08 12:03:13;;;;;;;4.43;1.80;;;;;;;;;;4991744;28;20181;-86
2022/07/08 12:05:38;;;;;;;3.13;1.97;;;;;;;;;;4987634;28;20190;-83
2022/07/08 12:08:10;;;;;;;6.50;2.23;;;;;;;;;;4984463;28;20181;-83
2022/07/08 12:10:35;;;;;;;2.53;2.07;;;;;;;;;;4999744;28;20206;-85
2022/07/08 12:13:01;;;;;;;5.33;2.00;;;;;;;;;;4988693;28;20182;-85
2022/07/08 12:15:35;;;;;;;3.17;1.97;;;;;;;;;;4990535;28;20555;-86
2022/07/08 12:18:00;;;;;;;3.67;1.90;;;;;;;;;;4992889;28;20253;-85
2022/07/08 12:20:36;;;;;;;1.93;1.70;;;;;;;;;;4993894;28;20821;-86
2022/07/08 12:23:01;;;;;;;4.90;1.90;;;;;;;;;;4990753;28;20185;-85
2022/07/08 12:25:27;;;;;;;5.40;1.97;;;;;;;;;;4993293;28;20210;-85
2022/07/08 12:27:56;;;;;;;3.57;2.07;;;;;;;;;;4987514;28;20183;-86
2022/07/08 12:30:26;;;;;;;3.93;2.30;;;;;;;;;;4997351;28;20217;-85
2022/07/08 12:32:53;;;;;;;5.07;1.60;;;;;;;;;;4985517;28;20211;-83
2022/07/08 12:35:29;;;;;;;3.67;2.70;;;;;;;;;;4989100;28;20182;-83
2022/07/08 12:38:02;;;;;;;5.70;2.00;;;;;;;;;;5008936;28;20209;-84
2022/07/08 12:40:35;;;;;;;2.57;2.03;;;;;;;;;;4993311;28;20216;-85
2022/07/08 12:43:01;;;;;;;2.57;2.00;;;;;;;;;;4989640;28;20179;-86
2022/07/08 12:45:28;;;;;;;3.27;1.80;;;;;;;;;;4991915;28;20202;-85
2022/07/08 12:47:53;;;;;;;6.33;2.20;;;;;;;;;;4997372;28;20318;-85
2022/07/08 12:50:19;;;;;;;2.93;1.80;;;;;;;;;;4990783;28;20206;-84
2022/07/08 12:52:44;;;;;;;3.33;1.60;;;;;;;;;;4993131;28;20196;-85
2022/07/08 12:55:09;;;;;;;2.90;2.00;;;;;;;;;;4988189;28;20183;-86
2022/07/08 12:57:35;;;;;;;3.15;2.25;;;;;;;;;;4987880;28;20206;-84
2022/07/08 13:00:00;;;;;;;5.17;1.90;;;;;;;;;;4992349;28;20204;-85
2022/07/08 13:02:25;;;;;;;6.20;2.07;;;;;;;;;;4989402;28;20191;-85
2022/07/08 13:04:50;;;;;;;2.85;1.98;;;;;;;;;;4990310;28;20295;-86
2022/07/08 13:07:16;;;;;;;2.20;2.08;;;;;;;;;;4990434;28;20172;-87
2022/07/08 13:09:41;;;;;;;1.92;1.63;;;;;;;;;;4991004;28;20177;-84
2022/07/08 13:12:06;;;;;;;4.32;1.90;;;;;;;;;;4986771;28;20191;-84
2022/07/08 13:14:32;;;;;;;3.42;1.55;;;;;;;;;;4990093;28;20184;-86
2022/07/08 13:16:57;;;;;;;3.17;2.17;;;;;;;;;;4994400;28;20180;-87
2022/07/08 13:19:22;;;;;;;2.80;1.90;;;;;;;;;;4986126;28;20250;-85
2022/07/08 13:21:48;;;;;;;3.65;1.75;;;;;;;;;;4989107;28;20181;-85
2022/07/08 13:24:13;;;;;;;5.18;2.08;;;;;;;;;;4988522;28;20177;-86
2022/07/08 13:26:38;;;;;;;3.22;1.63;;;;;;;;;;4990383;28;20179;-87
2022/07/08 13:29:03;;;;;;;3.15;2.35;;;;;;;;;;4985839;28;20187;-86
2022/07/08 13:31:28;;;;;;;2.83;1.95;;;;;;;;;;5000642;28;20186;-87
2022/07/08 13:33:54;;;;;;;2.40;1.80;;;;;;;;;;4990285;28;20235;-87
2022/07/08 13:36:21;;;;;;;2.40;1.83;;;;;;;;;;4989966;28;20184;-83
2022/07/08 13:38:47;;;;;;;4.10;2.15;;;;;;;;;;4990217;28;20547;-86
2022/07/08 13:41:12;;;;;;;5.70;1.70;;;;;;;;;;4995737;28;20184;-87
2022/07/08 13:43:38;;;;;;;2.70;1.90;;;;;;;;;;4989360;28;20208;-88
2022/07/08 13:46:04;;;;;;;3.47;2.20;;;;;;;;;;4992813;28;20211;-86
2022/07/08 13:48:30;;;;;;;4.18;1.85;;;;;;;;;;4992845;28;20171;-86
2022/07/08 13:50:55;;;;;;;3.45;2.00;;;;;;;;;;4996958;28;20194;-86
2022/07/08 13:53:20;;;;;;;3.35;1.83;;;;;;;;;;4991781;28;20172;-86
2022/07/08 13:55:45;;;;;;;3.30;2.10;;;;;;;;;;4999479;28;20187;-85
2022/07/08 13:58:11;;;;;;;5.30;2.30;;;;;;;;;;4992995;28;20272;-85
2022/07/08 14:00:36;;;;;;;2.85;1.75;;;;;;;;;;4993698;28;20342;-86
2022/07/08 14:03:01;;;;;;;5.47;2.50;;;;;;;;;;4995751;28;20177;-86
2022/07/08 14:05:27;;;;;;;3.00;2.00;;;;;;;;;;4993720;28;20180;-87
2022/07/08 14:07:52;;;;;;;2.58;1.70;;;;;;;;;;4992941;28;20211;-87
2022/07/08 14:10:17;;;;;;;3.30;1.70;;;;;;;;;;4989353;28;20181;-87
2022/07/08 14:12:42;;;;;;;3.78;2.00;;;;;;;;;;4989621;28;20200;-84
2022/07/08 14:15:08;;;;;;;2.85;1.73;;;;;;;;;;5007194;28;20184;-85
2022/07/08 14:17:35;;;;;;;4.80;2.05;;;;;;;;;;5005566;28;20199;-86
2022/07/08 14:20:01;;;;;;;2.55;1.90;;;;;;;;;;4990465;28;20214;-86
2022/07/08 14:22:26;;;;;;;4.65;1.95;;;;;;;;;;4994397;28;20180;-86
2022/07/08 14:24:51;;;;;;;2.50;1.83;;;;;;;;;;4993354;28;20176;-87
2022/07/08 14:27:17;;;;;;;4.10;2.17;;;;;;;;;;4991462;28;20184;-86
2022/07/08 14:29:42;;;;;;;3.00;2.00;;;;;;;;;;4995958;28;20187;-84
2022/07/08 14:32:07;;;;;;;3.47;1.92;;;;;;;;;;4996881;28;20198;-87
2022/07/08 14:34:32;;;;;;;2.22;2.03;;;;;;;;;;4993058;28;20184;-84
2022/07/08 14:36:58;;;;;;;6.28;2.25;;;;;;;;;;4994627;28;20191;-86
2022/07/08 14:39:23;;;;;;;2.85;1.98;;;;;;;;;;4992902;28;20200;-88